Campobello, South Carolina
Current Conditions -  °F | °C
As of 6:10 AM on Saturday 20 Dec 2014 (Local Time) from KGSP Reporting Station
Light Rain Light Rain  
Wind Chill: 38°   Ceiling: 1800
Heat Index: 42°   Visibility: 10mi
Dew Point: 38°   Wind: 7mph
Humidity: 85%   Direction: 30°NNE
Pressure: 30.16"   Gusts: NA
Location:  35.12°N, 82.15°W
Report Text: KGSP 201110Z AUTO 03006KT 10SM -RA BKN018 BKN039 OVC070 06/03 A3016 RMK AO2 RAB10 P0000 T00560033
Loading
Personal Weather Stations






























Interactive Weather Map New forecast layout! Learn more

10-Day Weather Forecast

Advertisements
Track Severe Weather on mobile